Hovedside
METAR-TAF:

METAR-TAF

Lufthavner :

Esenboğa internasjonale lufthavn

Ankara Esenboğa, Tyrkia

breddegrad: 40-07N, lengdegrad: 032-59E, høyde over havet: 953 m

Gjeldene værobservasjon

Denne rapporten ble laget for 41 minutter siden, klokken 03:20 UTC
Vind 1 kt fra skiftende retning
Temperatur 7°C
Luftfuktighet 61%
Trykk 1020 hPa
Sikt 10 km eller mer
ingen skyer under 1500 m og ingen bygeskyer

METAR: LTAC 200320Z VRB01KT CAVOK 07/M00 Q1020 NOSIG

Tid: 07:01 (04:01 UTC)

Varsel

Denne rapporten ble laget for 5 timer og 21 minutter siden, klokken 22:40 UTC
Varsel gyldig fra 20. klokken 00 UTC til 20. klokken 24 UTC
Vind 7 kt fra Nord-nordøst
Sikt 10 km eller mer
ingen skyer under 1500 m og ingen bygeskyer
Blir
fra 20. klokken 07 UTC til 20. klokken 09 UTC
Spredte skyer i en høyde av 4000 ft
Blir
fra 20. klokken 15 UTC til 20. klokken 18 UTC
Sikt 10 km eller mer
ingen skyer under 1500 m og ingen bygeskyer

TAF: LTAC 192240Z 2000/2024 03007KT CAVOK BECMG 2007/2009 SCT040 BECMG 2015/2018 CAVOK

Værobservasjoner og værvarsel for over 4000 flyplasser (METAR- og TAF-rapporter).

Tilgjengelige stasjoner er representert av de røde og gule prikkene på kartet.

Hold musepekeren over prikken for å se navnet på stasjonen.

Klikk så for å se værobservasjoner og -varsler.

For å forandre kartet kan du klikke på den grønne knappen med svart kryss for å zoome inn, på den grønne knappen med strek for å zoome ut, eller på de grønne pilene for å se tilstøtende kart.


METAR-TAF: